Antiville, Indiana
Current Conditions -  °F | °C
As of 10:53 AM on Sunday 23 Nov 2014 (Local Time) from KMIE Reporting Station
Scattered Clouds Scattered Clouds  
Wind Chill: 13°   Ceiling: Unl
Heat Index: 13°   Visibility: 10mi
Dew Point:   Wind: 15mph
Humidity: 67%   Direction: 180°S
Pressure: 29.84"   Gusts: NA
Location:  40.4312°N, 85.0058°W
Report Text: KMIE 231553Z 18013KT 10SM SCT065 13/07 A2984 RMK AO2 SLP102 T01330072
Loading
Personal Weather Stations






























Interactive Weather Map New forecast layout! Learn more

10-Day Weather Forecast

Advertisements
Track Severe Weather on mobile